Pine Apple, Alabama
Current Conditions -  °F | °C
As of 3:56 PM on Friday 28 Nov 2014 (Local Time) from KPRN Reporting Station
Clear Clear  
Wind Chill: 56°   Ceiling: Unl
Heat Index: 56°   Visibility: 10mi
Dew Point: 19°   Wind: 0mph
Humidity: 24%   Direction: NA
Pressure: 30.29"   Gusts: NA
Location:  31.87°N, 86.99°W
Report Text: KPRN 282156Z AUTO 00000KT 10SM CLR 13/M07 A3029 RMK AO2 SLP257 T01331072
Loading
Personal Weather Stations






























Interactive Weather Map New forecast layout! Learn more

10-Day Weather Forecast

Advertisements
Track Severe Weather on mobile